Panda — H8NH — position and weather

sailwx.info

Track history (hours):
 
Tides and Currents Weather Stations Pressure Air Temp Water Temp Dewpoint Dewpoint Depression Visibility Wind Speed Wind Dir Waves Ship Positions

Panda

Last reported at 2015-Jul-27 19:26 UTC. Time now 2015-Jul-28 10:24 UTC.
Position N 31°39' E 031°44'.

Length 171 m; draft 8 m.

Type: Cargo ship. MMSI: 352528000.

Date/timePositionNaut miles runAvg speedWind from/ knotsBaromVisibWave heightAir tempDewpointWater temp
2015-Jul-27 19:26N 31°39' E 031°44'0 0.0
2015-Jul-27 18:32N 31°39' E 031°44'0 0.0
2015-Jul-27 17:32N 31°39' E 031°44'0 0.0
2015-Jul-27 16:32N 31°39' E 031°44'0 0.0
2015-Jul-26 22:32N 31°39' E 031°44'0 0.0
2015-Jul-26 21:32N 31°39' E 031°44'0 0.0
2015-Jul-26 20:32N 31°39' E 031°44'0 0.0
2015-Jul-26 19:32N 31°39' E 031°44'0 0.0
2015-Jul-26 18:29N 31°39' E 031°44'0 0.0
2015-Jul-26 17:05N 31°39' E 031°44'0 0.0
2015-Jul-26 15:26N 31°39' E 031°44'0 0.0
2015-Jul-26 11:23N 31°39' E 031°44'0 0.0
2015-Jul-26 10:23N 31°39' E 031°44'0 0.0
2015-Jul-26 03:23N 31°39' E 031°44'0 0.0
2015-Jul-26 02:14N 31°39' E 031°44'0 0.0
2015-Jul-26 01:29N 31°39' E 031°44'0 0.0
2015-Jul-25 16:11N 31°39' E 031°44'0 0.0
2015-Jul-25 15:20N 31°39' E 031°44'0 0.0
2015-Jul-25 14:28N 31°39' E 031°44'0 0.0
2015-Jul-25 08:10N 31°39' E 031°44'0 0.0
2015-Jul-25 07:18N 31°39' E 031°44'0 0.0
2015-Jul-25 06:32N 31°39' E 031°44'0 0.1
2015-Jul-25 05:33N 31°40' E 031°44'6 6.1
2015-Jul-25 04:33N 31°45' E 031°41'46 8.7
2015-Jul-24 23:17N 32°20' E 031°05'23211.2
2015-Jul-24 02:32N 35°15' E 028°02'3210.9
2015-Jul-23 23:33N 35°40' E 027°36'8811.0
2015-Jul-23 15:33N 36°46' E 026°24'1211.3
2015-Jul-23 14:30N 36°55' E 026°15'1111.3
2015-Jul-23 13:33N 37°04' E 026°08'1311.1
2015-Jul-23 12:24N 37°15' E 025°60'911.1
2015-Jul-23 11:33N 37°23' E 025°54'1110.6
2015-Jul-23 10:33N 37°33' E 025°49'1110.9
2015-Jul-23 09:33N 37°44' E 025°47'229 9.4
2015-Jul-22 09:11N 40°52' E 028°35'1011.0
2015-Jul-22 08:16N 40°55' E 028°48'218 6.7
2015-Jul-20 23:33N 44°22' E 030°22'1110.9
2015-Jul-20 22:33N 44°32' E 030°27'1110.8
2015-Jul-20 21:33N 44°43' E 030°31'1110.7
2015-Jul-20 20:32N 44°53' E 030°36'1010.3
2015-Jul-20 19:33N 45°03' E 030°40'1110.1
2015-Jul-20 18:30N 45°13' E 030°44'1010.1
2015-Jul-20 17:31N 45°23' E 030°48'1010.2
2015-Jul-20 16:32N 45°32' E 030°52'2510.3
2015-Jul-20 14:07N 45°56' E 031°02'710.4
2015-Jul-20 13:28N 46°02' E 031°04'9 9.3
2015-Jul-20 12:33N 46°11' E 031°00'9 9.2
2015-Jul-20 11:31N 46°19' E 030°55'9 9.7
2015-Jul-20 10:33N 46°29' E 030°55'9 7.2
2015-Jul-20 09:17N 46°35' E 031°05'7 8.7
2015-Jul-20 08:30N 46°35' E 031°15'10 9.4
2015-Jul-20 07:26N 46°36' E 031°30'8 8.6
2015-Jul-20 06:33N 46°36' E 031°41'9 9.1
2015-Jul-20 05:33N 46°38' E 031°54'8 8.1
2015-Jul-20 04:33N 46°46' E 031°54'5 5.2
2015-Jul-20 03:33N 46°50' E 031°57'0 0.0
2015-Jul-20 02:33N 46°50' E 031°57'0 0.0
2015-Jul-20 01:33N 46°50' E 031°57'0 0.0
2015-Jul-20 00:33N 46°50' E 031°57'0 0.0
2015-Jul-19 23:33N 46°50' E 031°57'0 0.0
2015-Jul-19 22:33N 46°50' E 031°57'0 0.0
2015-Jul-19 21:33N 46°50' E 031°57'0 0.0
2015-Jul-19 20:33N 46°50' E 031°57'0 0.0
2015-Jul-19 19:33N 46°50' E 031°57'0 0.0
2015-Jul-19 18:33N 46°50' E 031°57'0 0.0
2015-Jul-19 17:33N 46°50' E 031°57'0 0.0
2015-Jul-19 16:33N 46°50' E 031°57'0 0.0
2015-Jul-19 15:33N 46°50' E 031°57'0 0.0
2015-Jul-19 14:33N 46°50' E 031°57'0 0.0
2015-Jul-19 13:33N 46°50' E 031°57'0 0.0
2015-Jul-19 12:33N 46°50' E 031°57'0 0.0
2015-Jul-19 11:33N 46°50' E 031°57'0 0.0
2015-Jul-19 10:33N 46°50' E 031°57'0 0.0
2015-Jul-19 09:33N 46°50' E 031°57'0 0.0
2015-Jul-19 08:33N 46°50' E 031°57'0 0.0
2015-Jul-19 07:33N 46°50' E 031°57'0 0.0
2015-Jul-19 06:33N 46°50' E 031°57'0 0.0
2015-Jul-19 05:32N 46°50' E 031°57'0 0.0
2015-Jul-19 04:33N 46°50' E 031°57'0 0.0
2015-Jul-18 22:18N 46°50' E 031°57'0 0.0
2015-Jul-18 21:32N 46°50' E 031°57'0 0.0
2015-Jul-18 20:33N 46°50' E 031°57'0 0.0
2015-Jul-18 19:33N 46°50' E 031°57'0 0.0
2015-Jul-18 18:33N 46°50' E 031°57'0 0.0
2015-Jul-18 17:33N 46°50' E 031°57'0 0.0
2015-Jul-18 16:33N 46°50' E 031°57'0 0.0
2015-Jul-18 15:33N 46°50' E 031°57'0 0.0
2015-Jul-18 14:33N 46°50' E 031°57'0 0.0
2015-Jul-18 13:33N 46°50' E 031°57'0 0.0
2015-Jul-18 12:33N 46°50' E 031°57'0 0.0
2015-Jul-18 11:33N 46°50' E 031°57'0 0.0
2015-Jul-18 10:29N 46°50' E 031°57'0 0.0
2015-Jul-18 09:33N 46°50' E 031°57'0 0.0
2015-Jul-18 08:33N 46°50' E 031°57'0 0.0
2015-Jul-18 07:33N 46°50' E 031°57'0 0.0
2015-Jul-18 06:33N 46°50' E 031°57'0 0.0
2015-Jul-18 05:33N 46°50' E 031°57'0 0.0
2015-Jul-18 04:33N 46°50' E 031°57'0 0.0
2015-Jul-18 03:33N 46°50' E 031°57'0 0.0
2015-Jul-18 02:33N 46°50' E 031°57'0 0.0
2015-Jul-18 01:33N 46°50' E 031°57'0 0.0
2015-Jul-18 00:33N 46°50' E 031°57'0 0.0
2015-Jul-17 23:33N 46°50' E 031°57'0 0.0
2015-Jul-17 22:33N 46°50' E 031°57'0 0.0
2015-Jul-17 21:33N 46°50' E 031°57'0 0.0
2015-Jul-17 20:33N 46°50' E 031°57'0 0.0
2015-Jul-17 19:33N 46°50' E 031°57'  
Track history (hours):
 
Tides and Currents Weather Stations Pressure Air Temp Water Temp Dewpoint Dewpoint Depression Visibility Wind Speed Wind Dir Waves Ship Positions

Panda

Last reported at 2015-Jul-27 19:26 UTC. Time now 2015-Jul-28 10:24 UTC.
Position N 31°39' E 031°44'.

Length 171 m; draft 8 m.

Type: Cargo ship. MMSI: 352528000.

Date/timePositionNaut miles runAvg speedWind from/ knotsBaromVisibWave heightAir tempDewpointWater temp
2015-Jul-27 19:26N 31°39' E 031°44'0 0.0
2015-Jul-27 18:32N 31°39' E 031°44'0 0.0
2015-Jul-27 17:32N 31°39' E 031°44'0 0.0
2015-Jul-27 16:32N 31°39' E 031°44'0 0.0
2015-Jul-26 22:32N 31°39' E 031°44'0 0.0
2015-Jul-26 21:32N 31°39' E 031°44'0 0.0
2015-Jul-26 20:32N 31°39' E 031°44'0 0.0
2015-Jul-26 19:32N 31°39' E 031°44'0 0.0
2015-Jul-26 18:29N 31°39' E 031°44'0 0.0
2015-Jul-26 17:05N 31°39' E 031°44'0 0.0
2015-Jul-26 15:26N 31°39' E 031°44'0 0.0
2015-Jul-26 11:23N 31°39' E 031°44'0 0.0
2015-Jul-26 10:23N 31°39' E 031°44'0 0.0
2015-Jul-26 03:23N 31°39' E 031°44'0 0.0
2015-Jul-26 02:14N 31°39' E 031°44'0 0.0
2015-Jul-26 01:29N 31°39' E 031°44'0 0.0
2015-Jul-25 16:11N 31°39' E 031°44'0 0.0
2015-Jul-25 15:20N 31°39' E 031°44'0 0.0
2015-Jul-25 14:28N 31°39' E 031°44'0 0.0
2015-Jul-25 08:10N 31°39' E 031°44'0 0.0
2015-Jul-25 07:18N 31°39' E 031°44'0 0.0
2015-Jul-25 06:32N 31°39' E 031°44'0 0.1
2015-Jul-25 05:33N 31°40' E 031°44'6 6.1
2015-Jul-25 04:33N 31°45' E 031°41'46 8.7
2015-Jul-24 23:17N 32°20' E 031°05'23211.2
2015-Jul-24 02:32N 35°15' E 028°02'3210.9
2015-Jul-23 23:33N 35°40' E 027°36'8811.0
2015-Jul-23 15:33N 36°46' E 026°24'1211.3
2015-Jul-23 14:30N 36°55' E 026°15'1111.3
2015-Jul-23 13:33N 37°04' E 026°08'1311.1
2015-Jul-23 12:24N 37°15' E 025°60'911.1
2015-Jul-23 11:33N 37°23' E 025°54'1110.6
2015-Jul-23 10:33N 37°33' E 025°49'1110.9
2015-Jul-23 09:33N 37°44' E 025°47'229 9.4
2015-Jul-22 09:11N 40°52' E 028°35'1011.0
2015-Jul-22 08:16N 40°55' E 028°48'218 6.7
2015-Jul-20 23:33N 44°22' E 030°22'1110.9
2015-Jul-20 22:33N 44°32' E 030°27'1110.8
2015-Jul-20 21:33N 44°43' E 030°31'1110.7
2015-Jul-20 20:32N 44°53' E 030°36'1010.3
2015-Jul-20 19:33N 45°03' E 030°40'1110.1
2015-Jul-20 18:30N 45°13' E 030°44'1010.1
2015-Jul-20 17:31N 45°23' E 030°48'1010.2
2015-Jul-20 16:32N 45°32' E 030°52'2510.3
2015-Jul-20 14:07N 45°56' E 031°02'710.4
2015-Jul-20 13:28N 46°02' E 031°04'9 9.3
2015-Jul-20 12:33N 46°11' E 031°00'9 9.2
2015-Jul-20 11:31N 46°19' E 030°55'9 9.7
2015-Jul-20 10:33N 46°29' E 030°55'9 7.2
2015-Jul-20 09:17N 46°35' E 031°05'7 8.7
2015-Jul-20 08:30N 46°35' E 031°15'10 9.4
2015-Jul-20 07:26N 46°36' E 031°30'8 8.6
2015-Jul-20 06:33N 46°36' E 031°41'9 9.1
2015-Jul-20 05:33N 46°38' E 031°54'8 8.1
2015-Jul-20 04:33N 46°46' E 031°54'5 5.2
2015-Jul-20 03:33N 46°50' E 031°57'0 0.0
2015-Jul-20 02:33N 46°50' E 031°57'0 0.0
2015-Jul-20 01:33N 46°50' E 031°57'0 0.0
2015-Jul-20 00:33N 46°50' E 031°57'0 0.0
2015-Jul-19 23:33N 46°50' E 031°57'0 0.0
2015-Jul-19 22:33N 46°50' E 031°57'0 0.0
2015-Jul-19 21:33N 46°50' E 031°57'0 0.0
2015-Jul-19 20:33N 46°50' E 031°57'0 0.0
2015-Jul-19 19:33N 46°50' E 031°57'0 0.0
2015-Jul-19 18:33N 46°50' E 031°57'0 0.0
2015-Jul-19 17:33N 46°50' E 031°57'0 0.0
2015-Jul-19 16:33N 46°50' E 031°57'0 0.0
2015-Jul-19 15:33N 46°50' E 031°57'0 0.0
2015-Jul-19 14:33N 46°50' E 031°57'0 0.0
2015-Jul-19 13:33N 46°50' E 031°57'0 0.0
2015-Jul-19 12:33N 46°50' E 031°57'0 0.0
2015-Jul-19 11:33N 46°50' E 031°57'0 0.0
2015-Jul-19 10:33N 46°50' E 031°57'0 0.0
2015-Jul-19 09:33N 46°50' E 031°57'0 0.0
2015-Jul-19 08:33N 46°50' E 031°57'0 0.0
2015-Jul-19 07:33N 46°50' E 031°57'0 0.0
2015-Jul-19 06:33N 46°50' E 031°57'0 0.0
2015-Jul-19 05:32N 46°50' E 031°57'0 0.0
2015-Jul-19 04:33N 46°50' E 031°57'0 0.0
2015-Jul-18 22:18N 46°50' E 031°57'0 0.0
2015-Jul-18 21:32N 46°50' E 031°57'0 0.0
2015-Jul-18 20:33N 46°50' E 031°57'0 0.0
2015-Jul-18 19:33N 46°50' E 031°57'0 0.0
2015-Jul-18 18:33N 46°50' E 031°57'0 0.0
2015-Jul-18 17:33N 46°50' E 031°57'0 0.0
2015-Jul-18 16:33N 46°50' E 031°57'0 0.0
2015-Jul-18 15:33N 46°50' E 031°57'0 0.0
2015-Jul-18 14:33N 46°50' E 031°57'0 0.0
2015-Jul-18 13:33N 46°50' E 031°57'0 0.0
2015-Jul-18 12:33N 46°50' E 031°57'0 0.0
2015-Jul-18 11:33N 46°50' E 031°57'0 0.0
2015-Jul-18 10:29N 46°50' E 031°57'0 0.0
2015-Jul-18 09:33N 46°50' E 031°57'0 0.0
2015-Jul-18 08:33N 46°50' E 031°57'0 0.0
2015-Jul-18 07:33N 46°50' E 031°57'0 0.0
2015-Jul-18 06:33N 46°50' E 031°57'0 0.0
2015-Jul-18 05:33N 46°50' E 031°57'0 0.0
2015-Jul-18 04:33N 46°50' E 031°57'0 0.0
2015-Jul-18 03:33N 46°50' E 031°57'0 0.0
2015-Jul-18 02:33N 46°50' E 031°57'0 0.0
2015-Jul-18 01:33N 46°50' E 031°57'0 0.0
2015-Jul-18 00:33N 46°50' E 031°57'0 0.0
2015-Jul-17 23:33N 46°50' E 031°57'0 0.0
2015-Jul-17 22:33N 46°50' E 031°57'0 0.0
2015-Jul-17 21:33N 46°50' E 031°57'0 0.0
2015-Jul-17 20:33N 46°50' E 031°57'0 0.0
2015-Jul-17 19:33N 46°50' E 031°57'  

Dump ship's entire track history